createdAt,value
2016-07-27T00:00:30.683Z,17.81
2016-07-27T00:01:31.391Z,17.86
2016-07-27T00:02:30.682Z,17.81
2016-07-27T00:03:31.412Z,17.77
2016-07-27T00:04:30.814Z,17.8
2016-07-27T00:05:30.817Z,17.86
2016-07-27T00:06:30.828Z,17.77
2016-07-27T00:07:30.828Z,17.8
2016-07-27T00:08:30.835Z,17.84
2016-07-27T00:09:30.843Z,17.84
2016-07-27T00:10:30.824Z,17.81
2016-07-27T00:11:30.813Z,17.83
2016-07-27T00:12:30.870Z,17.83
2016-07-27T00:13:30.832Z,17.84
2016-07-27T00:14:30.838Z,17.84
2016-07-27T00:15:30.854Z,17.87
2016-07-27T00:16:30.902Z,17.88
2016-07-27T00:17:30.861Z,17.9
2016-07-27T00:18:30.796Z,17.88
2016-07-27T00:19:30.812Z,17.88
2016-07-27T00:20:30.804Z,17.88
2016-07-27T00:21:30.853Z,17.87
2016-07-27T00:22:30.814Z,17.92
2016-07-27T00:23:30.814Z,17.94
2016-07-27T00:24:30.845Z,17.86
2016-07-27T00:25:30.833Z,17.86
2016-07-27T00:26:30.838Z,17.87
2016-07-27T00:27:30.839Z,17.9
2016-07-27T00:28:30.845Z,17.79
2016-07-27T00:29:31.564Z,17.86
2016-07-27T00:30:30.860Z,17.94
2016-07-27T00:31:30.868Z,17.92
2016-07-27T00:32:30.857Z,17.88
2016-07-27T00:33:30.890Z,17.83
2016-07-27T00:34:30.910Z,17.83
2016-07-27T00:35:30.850Z,17.87
2016-07-27T00:36:30.934Z,17.86
2016-07-27T00:37:30.883Z,17.8
2016-07-27T00:38:30.868Z,17.77
2016-07-27T00:39:30.899Z,17.83
2016-07-27T00:40:30.892Z,17.84
2016-07-27T00:41:30.905Z,17.81
2016-07-27T00:42:30.926Z,17.83
2016-07-27T00:43:30.914Z,17.8
2016-07-27T00:44:30.906Z,17.86
2016-07-27T00:45:30.937Z,17.87
2016-07-27T00:46:30.939Z,17.87
2016-07-27T00:47:30.930Z,17.86
2016-07-27T00:48:30.960Z,17.94
2016-07-27T00:49:30.946Z,17.87
2016-07-27T00:50:30.968Z,17.87
2016-07-27T00:52:30.975Z,17.87
2016-07-27T00:53:31.687Z,17.87
2016-07-27T00:54:31.004Z,17.92
2016-07-27T00:55:30.985Z,17.84
2016-07-27T00:56:31.004Z,17.88
2016-07-27T00:57:31.017Z,17.87
2016-07-27T00:58:31.016Z,17.83
2016-07-27T00:59:31.003Z,17.81
2016-07-27T01:00:31.037Z,17.84
2016-07-27T01:01:31.039Z,17.88
2016-07-27T01:02:31.039Z,17.83
2016-07-27T01:03:31.098Z,17.83
2016-07-27T01:04:31.818Z,17.87
2016-07-27T01:05:31.114Z,17.84
2016-07-27T01:07:31.150Z,17.86
2016-07-27T01:08:31.189Z,17.83
2016-07-27T01:09:31.853Z,17.84
2016-07-27T01:10:31.150Z,17.84
2016-07-27T01:11:31.149Z,17.87
2016-07-27T01:12:31.118Z,17.86
2016-07-27T01:13:31.125Z,17.84
2016-07-27T01:14:31.835Z,17.84
2016-07-27T01:15:31.147Z,17.83
2016-07-27T01:16:31.138Z,17.8
2016-07-27T01:17:31.152Z,17.84
2016-07-27T01:18:31.160Z,17.86
2016-07-27T01:19:31.879Z,17.84
2016-07-27T01:20:31.171Z,17.84
2016-07-27T01:22:31.190Z,17.81
2016-07-27T01:23:31.195Z,17.81
2016-07-27T01:24:31.219Z,17.81
2016-07-27T01:25:31.212Z,17.83
2016-07-27T01:26:31.206Z,17.84
2016-07-27T01:27:31.226Z,17.87
2016-07-27T01:28:31.234Z,17.81
2016-07-27T01:29:31.253Z,17.83
2016-07-27T01:30:31.260Z,17.83
2016-07-27T01:31:31.245Z,17.81
2016-07-27T01:32:31.251Z,17.9
2016-07-27T01:33:31.266Z,17.83
2016-07-27T01:34:31.273Z,17.86
2016-07-27T01:35:31.271Z,17.81
2016-07-27T01:37:33.717Z,17.8
2016-07-27T01:38:31.300Z,17.79
2016-07-27T01:39:32.025Z,17.81
2016-07-27T01:40:31.313Z,17.81
2016-07-27T01:41:31.313Z,17.81
2016-07-27T01:42:31.320Z,17.77
2016-07-27T01:43:31.312Z,17.81
2016-07-27T01:44:31.318Z,17.8
2016-07-27T01:45:31.317Z,17.81
2016-07-27T01:46:31.320Z,17.79
2016-07-27T01:47:31.315Z,17.81
2016-07-27T01:48:31.331Z,17.83
2016-07-27T01:49:31.343Z,17.74
2016-07-27T01:50:31.341Z,17.77
2016-07-27T01:52:31.344Z,17.76
2016-07-27T01:53:31.359Z,17.69
2016-07-27T01:54:31.604Z,17.74
2016-07-27T01:55:31.601Z,17.77
2016-07-27T01:56:31.610Z,17.81
2016-07-27T01:57:31.624Z,17.73
2016-07-27T01:58:31.598Z,17.69
2016-07-27T01:59:31.609Z,17.76
2016-07-27T02:00:31.642Z,17.79
2016-07-27T02:01:31.415Z,17.73
2016-07-27T02:02:31.419Z,17.77
2016-07-27T02:03:31.432Z,17.71
2016-07-27T02:04:31.416Z,17.73
2016-07-27T02:05:31.550Z,17.68
2016-07-27T02:07:31.566Z,17.66
2016-07-27T02:08:31.581Z,17.68
2016-07-27T02:09:31.575Z,17.76
2016-07-27T02:10:31.586Z,17.71
2016-07-27T02:11:31.589Z,17.66
2016-07-27T02:12:31.483Z,17.66
2016-07-27T02:13:31.473Z,17.73
2016-07-27T02:14:31.473Z,17.77
2016-07-27T02:15:31.466Z,17.69
2016-07-27T02:16:31.473Z,17.74
2016-07-27T02:17:31.477Z,17.73
2016-07-27T02:18:31.494Z,17.76
2016-07-27T02:19:31.489Z,17.74
2016-07-27T02:20:31.486Z,17.69
2016-07-27T02:22:31.502Z,17.81
2016-07-27T02:23:31.508Z,17.86
2016-07-27T02:24:31.513Z,17.83
2016-07-27T02:25:31.527Z,17.79
2016-07-27T02:26:31.517Z,17.8
2016-07-27T02:27:31.543Z,17.77
2016-07-27T02:28:31.541Z,17.83
2016-07-27T02:29:31.547Z,17.81
2016-07-27T02:30:31.564Z,17.86
2016-07-27T02:31:31.566Z,17.84
2016-07-27T02:32:31.562Z,17.83
2016-07-27T02:33:31.600Z,17.84
2016-07-27T02:34:31.578Z,17.84
2016-07-27T02:35:31.589Z,17.86
2016-07-27T02:37:31.610Z,17.86
2016-07-27T02:38:31.606Z,17.84
2016-07-27T02:39:31.638Z,17.81
2016-07-27T02:40:31.627Z,17.86
2016-07-27T02:41:31.638Z,17.83
2016-07-27T02:42:31.668Z,17.83
2016-07-27T02:43:31.661Z,17.87
2016-07-27T02:44:31.652Z,17.83
2016-07-27T02:45:31.687Z,17.84
2016-07-27T02:46:31.684Z,17.84
2016-07-27T02:47:31.684Z,17.86
2016-07-27T02:48:31.696Z,17.79
2016-07-27T02:49:31.706Z,17.79
2016-07-27T02:50:31.700Z,17.76
2016-07-27T02:51:31.708Z,17.79
2016-07-27T02:52:31.715Z,17.73
2016-07-27T02:53:31.698Z,17.68
2016-07-27T02:54:31.731Z,17.73
2016-07-27T02:55:31.734Z,17.68
2016-07-27T02:56:31.747Z,17.65
2016-07-27T02:57:31.763Z,17.65
2016-07-27T02:58:31.753Z,17.63
2016-07-27T02:59:31.754Z,17.54
2016-07-27T03:00:31.781Z,17.58
2016-07-27T03:01:31.937Z,17.54
2016-07-27T03:02:31.770Z,17.55
2016-07-27T03:03:31.805Z,17.55
2016-07-27T03:04:31.873Z,17.55
2016-07-27T03:05:31.787Z,17.55
2016-07-27T03:06:31.813Z,17.57
2016-07-27T03:07:31.825Z,17.58
2016-07-27T03:08:31.811Z,17.71
2016-07-27T03:09:31.855Z,17.58
2016-07-27T03:10:31.835Z,17.57
2016-07-27T03:11:32.066Z,17.5
2016-07-27T03:12:31.868Z,17.58
2016-07-27T03:13:31.869Z,17.57
2016-07-27T03:14:31.857Z,17.49
2016-07-27T03:15:32.102Z,17.5
2016-07-27T03:16:31.901Z,17.52
2016-07-27T03:17:31.891Z,17.52
2016-07-27T03:18:31.910Z,17.52
2016-07-27T03:19:31.912Z,17.42
2016-07-27T03:20:32.105Z,17.47
2016-07-27T03:21:31.919Z,17.46
2016-07-27T03:22:31.919Z,17.46
2016-07-27T03:23:31.919Z,17.5
2016-07-27T03:24:31.941Z,17.49
2016-07-27T03:25:31.938Z,17.5
2016-07-27T03:26:31.933Z,17.54
2016-07-27T03:27:31.970Z,17.54
2016-07-27T03:28:32.677Z,17.45
2016-07-27T03:29:31.962Z,17.54
2016-07-27T03:30:32.007Z,17.49
2016-07-27T03:31:31.984Z,17.52
2016-07-27T03:32:31.982Z,17.49
2016-07-27T03:33:32.020Z,17.5
2016-07-27T03:34:32.167Z,17.57
2016-07-27T03:35:32.009Z,17.6
2016-07-27T03:36:32.039Z,17.68
2016-07-27T03:37:32.035Z,17.66
2016-07-27T03:38:32.262Z,17.63
2016-07-27T03:39:32.137Z,17.73
2016-07-27T03:40:32.036Z,17.77
2016-07-27T03:41:32.042Z,17.81
2016-07-27T03:42:32.072Z,17.76
2016-07-27T03:43:32.059Z,17.8
2016-07-27T03:44:32.072Z,17.79
2016-07-27T03:45:32.093Z,17.87
2016-07-27T03:46:32.081Z,17.87
2016-07-27T03:47:32.083Z,17.86
2016-07-27T03:48:32.109Z,17.84
2016-07-27T03:49:32.115Z,17.87
2016-07-27T03:50:32.104Z,17.9
2016-07-27T03:51:32.135Z,17.88
2016-07-27T03:52:32.143Z,17.92
2016-07-27T03:53:32.128Z,17.88
2016-07-27T03:54:32.158Z,17.92
2016-07-27T03:55:32.349Z,17.88
2016-07-27T03:56:32.157Z,17.84
2016-07-27T03:57:32.159Z,17.84
2016-07-27T03:58:32.166Z,17.86
2016-07-27T03:59:32.156Z,17.87
2016-07-27T04:00:32.325Z,17.87
2016-07-27T04:01:32.163Z,17.84
2016-07-27T04:02:32.871Z,17.88
2016-07-27T04:03:32.170Z,17.86
2016-07-27T04:04:32.292Z,17.87
2016-07-27T04:05:32.243Z,17.84
2016-07-27T04:06:32.275Z,17.9
2016-07-27T04:07:32.417Z,17.95
2016-07-27T04:08:32.203Z,17.92
2016-07-27T04:09:32.223Z,18.01
2016-07-27T04:10:32.320Z,18.01
2016-07-27T04:11:32.225Z,17.99
2016-07-27T04:12:32.240Z,18.05
2016-07-27T04:13:33.173Z,18.06
2016-07-27T04:14:32.455Z,18.11
2016-07-27T04:15:32.276Z,18.2
2016-07-27T04:16:32.361Z,18.19
2016-07-27T04:17:32.481Z,18.16
2016-07-27T04:18:32.303Z,18.32
2016-07-27T04:19:32.293Z,18.27
2016-07-27T04:20:32.298Z,18.32
2016-07-27T04:21:32.473Z,18.21
2016-07-27T04:22:33.136Z,18.31
2016-07-27T04:23:33.033Z,18.34
2016-07-27T04:24:32.555Z,18.35
2016-07-27T04:25:32.568Z,18.34
2016-07-27T04:26:32.341Z,18.39
2016-07-27T04:27:32.590Z,18.41
2016-07-27T04:28:32.367Z,18.42
2016-07-27T04:29:32.372Z,18.41
2016-07-27T04:30:32.408Z,18.47
2016-07-27T04:31:32.471Z,18.44
2016-07-27T04:32:32.629Z,18.42
2016-07-27T04:33:32.538Z,18.5
2016-07-27T04:34:32.642Z,18.53
2016-07-27T04:35:32.576Z,18.54
2016-07-27T04:36:32.512Z,18.5
2016-07-27T04:37:32.521Z,18.54
2016-07-27T04:38:32.659Z,18.53
2016-07-27T04:39:32.700Z,18.54
2016-07-27T04:40:32.570Z,18.54
2016-07-27T04:41:32.477Z,18.5
2016-07-27T04:42:32.721Z,18.5
2016-07-27T04:43:32.501Z,18.56
2016-07-27T04:44:32.727Z,18.66
2016-07-27T04:45:32.688Z,18.53
2016-07-27T04:46:32.527Z,18.61
2016-07-27T04:47:32.527Z,18.6
2016-07-27T04:48:32.663Z,18.51
2016-07-27T04:49:32.556Z,18.49
2016-07-27T04:50:33.327Z,18.6
2016-07-27T04:51:32.585Z,18.61
2016-07-27T04:52:32.810Z,18.61
2016-07-27T04:53:32.583Z,18.59
2016-07-27T04:54:32.830Z,18.53
2016-07-27T04:55:32.619Z,18.68
2016-07-27T04:56:33.435Z,18.65
2016-07-27T04:57:32.653Z,18.6
2016-07-27T04:58:32.858Z,18.69
2016-07-27T04:59:32.793Z,18.57
2016-07-27T05:00:32.885Z,18.71
2016-07-27T05:01:32.684Z,18.63
2016-07-27T05:02:32.677Z,18.72
2016-07-27T05:03:32.695Z,18.72
2016-07-27T05:04:32.711Z,18.72
2016-07-27T05:05:32.907Z,18.72
2016-07-27T05:06:32.798Z,18.78
2016-07-27T05:07:33.676Z,18.74
2016-07-27T05:08:32.885Z,18.81
2016-07-27T05:09:33.034Z,18.81
2016-07-27T05:10:32.745Z,18.84
2016-07-27T05:11:33.026Z,18.79
2016-07-27T05:12:32.996Z,18.89
2016-07-27T05:13:32.886Z,18.9
2016-07-27T05:14:32.887Z,18.89
2016-07-27T05:15:32.902Z,18.93
2016-07-27T05:16:32.798Z,18.96
2016-07-27T05:17:32.808Z,18.93
2016-07-27T05:18:32.827Z,18.93
2016-07-27T05:19:32.866Z,19.02
2016-07-27T05:20:33.042Z,18.96
2016-07-27T05:21:32.924Z,19.09
2016-07-27T05:22:32.889Z,19.16
2016-07-27T05:23:32.857Z,19.2
2016-07-27T05:24:33.045Z,19.23
2016-07-27T05:25:32.880Z,19.17
2016-07-27T05:26:32.887Z,19.34
2016-07-27T05:27:33.069Z,19.35
2016-07-27T05:28:33.876Z,19.5
2016-07-27T05:29:32.908Z,19.5
2016-07-27T05:30:33.056Z,19.56
2016-07-27T05:31:33.091Z,19.57
2016-07-27T05:32:33.111Z,19.7
2016-07-27T05:33:33.063Z,19.83
2016-07-27T05:34:33.267Z,19.9
2016-07-27T05:35:33.183Z,19.98
2016-07-27T05:36:33.021Z,20.05
2016-07-27T05:37:33.016Z,20.04
2016-07-27T05:38:33.928Z,20.18
2016-07-27T05:39:33.044Z,20.15
2016-07-27T05:40:33.253Z,20.25
2016-07-27T05:41:33.325Z,20.37
2016-07-27T05:42:33.246Z,20.34
2016-07-27T05:43:33.251Z,20.4
2016-07-27T05:44:33.042Z,20.46
2016-07-27T05:45:33.052Z,20.54
2016-07-27T05:46:33.041Z,20.57
2016-07-27T05:47:33.060Z,20.61
2016-07-27T05:48:33.055Z,20.71
2016-07-27T05:49:33.055Z,20.74
2016-07-27T05:50:33.054Z,20.86
2016-07-27T05:51:33.074Z,21.06
2016-07-27T05:52:33.074Z,21.08
2016-07-27T05:53:33.086Z,21.25
2016-07-27T05:54:33.091Z,21.27
2016-07-27T05:55:33.096Z,21.43
2016-07-27T05:56:33.101Z,21.45
2016-07-27T05:57:33.102Z,21.66
2016-07-27T05:58:33.122Z,21.73
2016-07-27T05:59:33.105Z,21.83
2016-07-27T06:00:33.139Z,21.94
2016-07-27T06:01:33.170Z,22.09
2016-07-27T06:02:33.139Z,22.16
2016-07-27T06:03:33.882Z,22.31
2016-07-27T06:04:33.163Z,22.36
2016-07-27T06:05:33.165Z,22.54
2016-07-27T06:06:33.201Z,22.64
2016-07-27T06:07:33.209Z,22.66
2016-07-27T06:08:33.274Z,22.82
2016-07-27T06:09:33.224Z,22.91
2016-07-27T06:10:33.334Z,23
2016-07-27T06:11:33.235Z,23.09
2016-07-27T06:12:33.264Z,23.24
2016-07-27T06:13:33.324Z,23.26
2016-07-27T06:14:33.258Z,23.26
2016-07-27T06:15:33.594Z,23.34
2016-07-27T06:16:33.288Z,23.34
2016-07-27T06:17:33.443Z,23.37
2016-07-27T06:18:33.572Z,23.35
2016-07-27T06:19:33.323Z,23.32
2016-07-27T06:20:33.326Z,23.47
2016-07-27T06:21:33.343Z,23.52
2016-07-27T06:22:33.527Z,23.67
2016-07-27T06:23:33.357Z,23.7
2016-07-27T06:24:33.536Z,23.77
2016-07-27T06:25:33.531Z,23.82
2016-07-27T06:26:33.378Z,23.96
2016-07-27T06:27:33.411Z,23.99
2016-07-27T06:28:33.479Z,24.14
2016-07-27T06:29:33.560Z,24.22
2016-07-27T06:30:33.414Z,24.21
2016-07-27T06:31:33.427Z,24.27
2016-07-27T06:32:33.637Z,24.33
2016-07-27T06:33:33.580Z,24.42
2016-07-27T06:34:33.442Z,24.29
2016-07-27T06:35:33.449Z,24.3
2016-07-27T06:36:33.608Z,24.29
2016-07-27T06:37:33.579Z,24.11
2016-07-27T06:38:33.482Z,24.12
2016-07-27T06:39:33.739Z,23.99
2016-07-27T06:40:33.514Z,23.85
2016-07-27T06:41:33.579Z,23.75
2016-07-27T06:42:33.543Z,23.71
2016-07-27T06:43:33.751Z,23.71
2016-07-27T06:44:33.547Z,23.7
2016-07-27T06:45:33.647Z,23.63
2016-07-27T06:46:33.586Z,23.59
2016-07-27T06:47:33.579Z,23.72
2016-07-27T06:48:33.610Z,23.71
2016-07-27T06:49:33.712Z,23.84
2016-07-27T06:50:33.603Z,24.14
2016-07-27T06:51:33.648Z,24.27
2016-07-27T06:52:33.876Z,24.74
2016-07-27T06:53:33.757Z,24.97
2016-07-27T06:54:33.811Z,25.11
2016-07-27T06:55:33.672Z,25.22
2016-07-27T06:56:33.673Z,25.33
2016-07-27T06:57:33.693Z,25.47
2016-07-27T06:58:33.712Z,25.51
2016-07-27T06:59:33.756Z,25.47
2016-07-27T07:00:33.733Z,25.32
2016-07-27T07:01:33.727Z,25.37
2016-07-27T07:02:33.732Z,25.23
2016-07-27T07:03:33.925Z,25.22
2016-07-27T07:04:34.546Z,25.23
2016-07-27T07:05:33.766Z,25.3
2016-07-27T07:06:33.798Z,25.19
2016-07-27T07:07:33.791Z,25.19
2016-07-27T07:08:33.916Z,24.94
2016-07-27T07:09:33.829Z,25
2016-07-27T07:10:33.828Z,24.96
2016-07-27T07:11:33.836Z,24.92
2016-07-27T07:12:33.853Z,24.82
2016-07-27T07:13:33.871Z,24.83
2016-07-27T07:14:33.881Z,24.67
2016-07-27T07:15:33.886Z,24.63
2016-07-27T07:16:34.614Z,24.58
2016-07-27T07:17:33.895Z,24.4
2016-07-27T07:18:33.931Z,24.4
2016-07-27T07:19:34.027Z,24.34
2016-07-27T07:20:33.946Z,24.36
2016-07-27T07:21:33.964Z,24.37
2016-07-27T07:22:33.969Z,24.45
2016-07-27T07:23:33.980Z,24.67
2016-07-27T07:24:34.219Z,25.19
2016-07-27T07:25:33.995Z,25.49
2016-07-27T07:26:34.070Z,25.59
2016-07-27T07:27:34.822Z,25.71
2016-07-27T07:28:34.142Z,25.79
2016-07-27T07:29:34.019Z,25.82
2016-07-27T07:30:34.024Z,25.75
2016-07-27T07:31:34.236Z,25.81
2016-07-27T07:32:34.039Z,25.75
2016-07-27T07:33:34.046Z,25.78
2016-07-27T07:34:34.029Z,25.76
2016-07-27T07:35:34.049Z,25.82
2016-07-27T07:36:34.037Z,25.94
2016-07-27T07:37:34.042Z,25.99
2016-07-27T07:38:34.045Z,25.99
2016-07-27T07:39:34.171Z,26.04
2016-07-27T07:40:34.239Z,25.91
2016-07-27T07:41:34.075Z,25.96
2016-07-27T07:42:34.080Z,25.86
2016-07-27T07:43:34.083Z,25.67
2016-07-27T07:44:34.097Z,25.67
2016-07-27T07:45:34.131Z,25.81
2016-07-27T07:46:34.595Z,25.71
2016-07-27T07:47:34.189Z,25.64
2016-07-27T07:48:35.144Z,25.59
2016-07-27T07:49:34.245Z,25.63
2016-07-27T07:50:34.147Z,25.76
2016-07-27T07:51:34.178Z,25.93
2016-07-27T07:52:34.431Z,26.23
2016-07-27T07:53:34.187Z,26.52
2016-07-27T07:54:34.230Z,26.63
2016-07-27T07:55:34.214Z,26.75
2016-07-27T07:56:34.223Z,27.05
2016-07-27T07:57:34.248Z,27.37
2016-07-27T07:58:34.369Z,27.53
2016-07-27T07:59:34.252Z,27.62
2016-07-27T08:00:34.279Z,27.65
2016-07-27T08:01:34.348Z,27.65
2016-07-27T08:02:34.291Z,27.51
2016-07-27T08:03:34.304Z,27.45
2016-07-27T08:04:34.304Z,27.31
2016-07-27T08:05:34.313Z,27.21
2016-07-27T08:06:34.320Z,26.99
2016-07-27T08:07:34.532Z,27.04
2016-07-27T08:08:34.333Z,27.33
2016-07-27T08:09:34.365Z,27.8
2016-07-27T08:11:34.562Z,28.14
2016-07-27T08:12:34.632Z,28.33
2016-07-27T08:13:34.396Z,28.46
2016-07-27T08:14:34.588Z,28.43
2016-07-27T08:15:34.537Z,28.33
2016-07-27T08:16:34.433Z,28.57
2016-07-27T08:17:34.435Z,28.8
2016-07-27T08:18:34.577Z,28.91
2016-07-27T08:19:34.483Z,28.9
2016-07-27T08:20:34.486Z,28.92
2016-07-27T08:21:34.622Z,28.98
2016-07-27T08:23:34.518Z,28.9
2016-07-27T08:24:34.658Z,28.79
2016-07-27T08:25:34.534Z,28.68
2016-07-27T08:26:34.542Z,28.68
2016-07-27T08:27:34.571Z,28.57
2016-07-27T08:28:34.575Z,28.48
2016-07-27T08:29:35.295Z,28.49
2016-07-27T08:30:35.363Z,28.43
2016-07-27T08:31:34.608Z,28.33
2016-07-27T08:32:34.628Z,28.24
2016-07-27T08:33:34.641Z,28.17
2016-07-27T08:34:34.694Z,27.94
2016-07-27T08:35:34.843Z,28.01
2016-07-27T08:36:34.793Z,27.93
2016-07-27T08:38:34.743Z,28.08
2016-07-27T08:39:35.416Z,28.02
2016-07-27T08:40:34.892Z,27.99
2016-07-27T08:41:34.845Z,27.84
2016-07-27T08:42:34.950Z,27.75
2016-07-27T08:43:34.763Z,27.57
2016-07-27T08:44:34.770Z,27.46
2016-07-27T08:45:34.789Z,27.42
2016-07-27T08:46:34.794Z,27.52
2016-07-27T08:47:34.798Z,27.68
2016-07-27T08:48:34.828Z,27.66
2016-07-27T08:49:34.913Z,27.72
2016-07-27T08:50:35.575Z,27.69
2016-07-27T08:51:34.861Z,27.74
2016-07-27T08:53:34.895Z,27.61
2016-07-27T08:54:34.913Z,27.46
2016-07-27T08:55:34.905Z,27.3
2016-07-27T08:56:35.119Z,27.31
2016-07-27T08:57:34.917Z,27.12
2016-07-27T08:58:35.131Z,27.01
2016-07-27T08:59:34.935Z,27.04
2016-07-27T09:00:34.967Z,27.05
2016-07-27T09:01:34.961Z,27.11
2016-07-27T09:02:34.975Z,27.23
2016-07-27T09:03:35.002Z,27.28
2016-07-27T09:04:35.025Z,27.45
2016-07-27T09:05:35.011Z,27.49
2016-07-27T09:06:35.043Z,27.48
2016-07-27T09:08:35.754Z,27.45
2016-07-27T09:09:35.062Z,27.33
2016-07-27T09:10:35.068Z,27.23
2016-07-27T09:11:35.073Z,27.12
2016-07-27T09:12:35.071Z,26.93
2016-07-27T09:13:35.807Z,26.82
2016-07-27T09:14:35.097Z,26.82
2016-07-27T09:15:35.093Z,26.76
2016-07-27T09:16:35.118Z,26.63
2016-07-27T09:17:35.116Z,26.5
2016-07-27T09:18:35.126Z,26.53
2016-07-27T09:19:35.116Z,26.52
2016-07-27T09:20:35.851Z,26.76
2016-07-27T09:21:35.130Z,26.91
2016-07-27T09:23:35.143Z,27.19
2016-07-27T09:24:35.151Z,27.33
2016-07-27T09:25:35.157Z,27.31
2016-07-27T09:26:35.182Z,27.36
2016-07-27T09:27:35.169Z,27.27
2016-07-27T09:28:35.178Z,27.36
2016-07-27T09:29:35.177Z,27.55
2016-07-27T09:30:35.185Z,27.75
2016-07-27T09:31:35.184Z,27.9
2016-07-27T09:32:35.205Z,28.03
2016-07-27T09:33:35.208Z,28.23
2016-07-27T09:34:35.257Z,28.42
2016-07-27T09:35:35.215Z,28.49
2016-07-27T09:36:35.224Z,28.49
2016-07-27T09:37:35.219Z,28.57
2016-07-27T09:38:35.226Z,28.55
2016-07-27T09:39:35.228Z,28.55
2016-07-27T09:40:35.235Z,28.68
2016-07-27T09:41:35.245Z,28.7
2016-07-27T09:42:35.269Z,28.64
2016-07-27T09:43:35.275Z,28.43
2016-07-27T09:44:35.280Z,28.16
2016-07-27T09:45:35.330Z,27.94
2016-07-27T09:46:35.320Z,27.69
2016-07-27T09:47:35.320Z,27.52
2016-07-27T09:48:35.340Z,27.34
2016-07-27T09:49:35.339Z,27.08
2016-07-27T09:50:35.367Z,26.94
2016-07-27T09:51:35.398Z,26.74
2016-07-27T09:52:35.383Z,26.78
2016-07-27T09:53:35.399Z,26.63
2016-07-27T09:54:35.414Z,26.37
2016-07-27T09:55:35.424Z,26.32
2016-07-27T09:56:35.441Z,26.34
2016-07-27T09:57:35.468Z,26.32
2016-07-27T09:58:35.458Z,26.54
2016-07-27T09:59:35.455Z,26.5
2016-07-27T10:00:35.471Z,26.61
2016-07-27T10:01:35.464Z,26.78
2016-07-27T10:02:35.477Z,26.9
2016-07-27T10:03:35.497Z,26.81
2016-07-27T10:04:35.623Z,26.89
2016-07-27T10:05:35.728Z,26.76
2016-07-27T10:06:35.621Z,26.63
2016-07-27T10:07:35.747Z,26.74
2016-07-27T10:08:35.560Z,26.63
2016-07-27T10:09:35.580Z,26.76
2016-07-27T10:10:35.577Z,27.01
2016-07-27T10:11:35.590Z,27.19
2016-07-27T10:12:35.624Z,27.41
2016-07-27T10:13:35.621Z,27.52
2016-07-27T10:14:35.630Z,27.55
2016-07-27T10:15:35.658Z,27.62
2016-07-27T10:16:35.666Z,27.53
2016-07-27T10:17:36.105Z,27.57
2016-07-27T10:18:35.699Z,27.64
2016-07-27T10:19:35.706Z,27.68
2016-07-27T10:20:35.915Z,27.53
2016-07-27T10:21:35.753Z,27.52
2016-07-27T10:22:35.758Z,27.69
2016-07-27T10:23:35.755Z,27.86
2016-07-27T10:24:35.788Z,28.01
2016-07-27T10:25:36.518Z,28.16
2016-07-27T10:26:35.900Z,28.09
2016-07-27T10:27:35.831Z,27.96
2016-07-27T10:28:35.828Z,27.87
2016-07-27T10:29:35.843Z,27.76
2016-07-27T10:30:35.875Z,27.83
2016-07-27T10:31:35.877Z,27.76
2016-07-27T10:32:35.882Z,27.8
2016-07-27T10:33:36.012Z,27.64
2016-07-27T10:34:35.948Z,27.42
2016-07-27T10:35:35.900Z,27.3
2016-07-27T10:36:35.920Z,27.31
2016-07-27T10:37:35.926Z,27.08
2016-07-27T10:38:35.937Z,27.11
2016-07-27T10:39:36.059Z,27.06
2016-07-27T10:40:35.960Z,27.05
2016-07-27T10:41:36.168Z,27.06
2016-07-27T10:42:35.996Z,27.12
2016-07-27T10:43:35.999Z,27.05
2016-07-27T10:44:36.113Z,27.15
2016-07-27T10:45:36.752Z,27.12
2016-07-27T10:46:36.062Z,27.28
2016-07-27T10:47:36.045Z,27.34
2016-07-27T10:48:36.189Z,27.34
2016-07-27T10:49:36.087Z,27.23
2016-07-27T10:50:36.100Z,27.26
2016-07-27T10:52:36.120Z,27.11
2016-07-27T10:53:36.115Z,26.99
2016-07-27T10:54:36.121Z,26.94
2016-07-27T10:55:36.140Z,26.82
2016-07-27T10:56:36.131Z,26.76
2016-07-27T10:57:36.142Z,26.68
2016-07-27T10:58:36.234Z,26.64
2016-07-27T10:59:36.155Z,26.64
2016-07-27T11:00:36.175Z,26.64
2016-07-27T11:01:36.177Z,26.56
2016-07-27T11:02:36.177Z,26.61
2016-07-27T11:03:36.176Z,26.56
2016-07-27T11:04:36.232Z,26.49
2016-07-27T11:05:36.174Z,26.54
2016-07-27T11:06:36.181Z,26.45
2016-07-27T11:07:36.190Z,26.5
2016-07-27T11:08:36.313Z,26.49
2016-07-27T11:09:36.287Z,26.38
2016-07-27T11:10:36.421Z,26.22
2016-07-27T11:11:36.323Z,26.17
2016-07-27T11:12:36.210Z,26.22
2016-07-27T11:13:36.416Z,26.26
2016-07-27T11:14:36.224Z,26.2
2016-07-27T11:15:36.237Z,26.27
2016-07-27T11:16:36.235Z,26.17
2016-07-27T11:17:36.243Z,26.01
2016-07-27T11:18:36.378Z,25.85
2016-07-27T11:19:36.277Z,25.82
2016-07-27T11:20:36.394Z,25.7
2016-07-27T11:21:36.320Z,25.48
2016-07-27T11:22:36.323Z,25.37
2016-07-27T11:23:36.438Z,25.23
2016-07-27T11:24:36.356Z,25.12
2016-07-27T11:25:36.478Z,24.94
2016-07-27T11:26:36.372Z,24.89
2016-07-27T11:27:36.539Z,24.69
2016-07-27T11:28:36.409Z,24.56
2016-07-27T11:29:36.534Z,24.48
2016-07-27T11:30:37.171Z,24.34
2016-07-27T11:31:36.485Z,24.27
2016-07-27T11:32:36.462Z,24.14
2016-07-27T11:33:36.591Z,23.84
2016-07-27T11:34:36.503Z,23.63
2016-07-27T11:35:36.532Z,23.48
2016-07-27T11:36:36.548Z,23.16
2016-07-27T11:37:36.595Z,22.99
2016-07-27T11:38:36.627Z,22.86
2016-07-27T11:39:36.553Z,22.73
2016-07-27T11:40:36.559Z,22.61
2016-07-27T11:41:36.662Z,22.46
2016-07-27T11:42:36.587Z,22.44
2016-07-27T11:43:36.590Z,22.41
2016-07-27T11:44:36.595Z,22.36
2016-07-27T11:45:36.649Z,22.38
2016-07-27T11:46:36.630Z,22.36
2016-07-27T11:47:36.635Z,22.29
2016-07-27T11:48:36.895Z,22.27
2016-07-27T11:49:36.684Z,22.31
2016-07-27T11:50:36.685Z,22.39
2016-07-27T11:51:36.742Z,22.33
2016-07-27T11:52:36.731Z,22.33
2016-07-27T11:53:36.735Z,22.31
2016-07-27T11:54:36.772Z,22.33
2016-07-27T11:55:37.483Z,22.36
2016-07-27T11:56:36.780Z,22.31
2016-07-27T11:57:36.905Z,22.34
2016-07-27T11:58:36.820Z,22.36
2016-07-27T11:59:36.823Z,22.42
2016-07-27T12:00:36.868Z,22.48
2016-07-27T12:01:36.885Z,22.44
2016-07-27T12:02:36.874Z,22.64
2016-07-27T12:03:36.923Z,22.85
2016-07-27T12:04:36.912Z,23.01
2016-07-27T12:05:36.928Z,23.25
2016-07-27T12:06:36.960Z,23.5
2016-07-27T12:07:36.999Z,23.67
2016-07-27T12:08:36.965Z,23.79
2016-07-27T12:09:37.017Z,23.96
2016-07-27T12:10:37.125Z,24.08
2016-07-27T12:11:37.006Z,24.22
2016-07-27T12:12:37.049Z,24.26
2016-07-27T12:13:37.054Z,24.24
2016-07-27T12:14:37.162Z,24.27
2016-07-27T12:15:37.803Z,24.29
2016-07-27T12:16:37.271Z,24.19
2016-07-27T12:17:37.269Z,24.14
2016-07-27T12:18:37.115Z,24.12
2016-07-27T12:19:37.116Z,23.96
2016-07-27T12:20:37.119Z,23.93
2016-07-27T12:21:37.424Z,23.85
2016-07-27T12:22:37.176Z,23.71
2016-07-27T12:23:37.162Z,23.63
2016-07-27T12:24:37.203Z,23.56
2016-07-27T12:25:37.300Z,23.47
2016-07-27T12:26:37.442Z,23.37
2016-07-27T12:27:37.360Z,23.19
2016-07-27T12:28:37.325Z,23
2016-07-27T12:29:37.268Z,22.92
2016-07-27T12:30:37.302Z,22.84
2016-07-27T12:31:37.457Z,22.78
2016-07-27T12:32:37.309Z,22.79
2016-07-27T12:33:37.361Z,22.75
2016-07-27T12:34:37.401Z,22.82
2016-07-27T12:35:37.346Z,23.04
2016-07-27T12:36:38.114Z,23.14
2016-07-27T12:37:37.400Z,23.32
2016-07-27T12:38:37.416Z,23.47
2016-07-27T12:39:37.403Z,23.72
2016-07-27T12:40:37.416Z,23.99
2016-07-27T12:41:37.420Z,24.22
2016-07-27T12:42:37.420Z,24.45
2016-07-27T12:43:37.421Z,24.74
2016-07-27T12:44:37.428Z,25.04
2016-07-27T12:45:37.414Z,25.2
2016-07-27T12:46:37.413Z,25.51
2016-07-27T12:47:37.433Z,25.82
2016-07-27T12:48:37.431Z,25.88
2016-07-27T12:49:37.434Z,25.94
2016-07-27T12:50:37.435Z,25.91
2016-07-27T12:51:37.438Z,25.88
2016-07-27T12:52:38.162Z,25.85
2016-07-27T12:53:37.454Z,25.71
2016-07-27T12:54:37.448Z,25.57
2016-07-27T12:55:37.454Z,25.54
2016-07-27T12:56:37.453Z,25.33
2016-07-27T12:57:37.492Z,25.27
2016-07-27T12:58:37.481Z,25.23
2016-07-27T12:59:37.494Z,25.15
2016-07-27T13:00:37.519Z,25.08
2016-07-27T13:01:37.520Z,25.05
2016-07-27T13:02:37.521Z,25.15
2016-07-27T13:03:37.563Z,25.23
2016-07-27T13:04:37.571Z,25.22
2016-07-27T13:05:37.568Z,25.45
2016-07-27T13:06:37.623Z,25.6
2016-07-27T13:07:37.611Z,25.64
2016-07-27T13:08:37.615Z,25.78
2016-07-27T13:09:37.629Z,25.76